createdAt,value
2023-01-03T00:00:59.636Z,7.30
2023-01-03T00:01:59.516Z,7.30
2023-01-03T00:02:59.372Z,7.10
2023-01-03T00:03:59.439Z,7.70
2023-01-03T00:04:59.495Z,8.20
2023-01-03T00:05:59.351Z,7.50
2023-01-03T00:06:59.467Z,7.20
2023-01-03T00:07:59.351Z,7.00
2023-01-03T00:08:59.395Z,7.30
2023-01-03T00:09:59.335Z,7.40
2023-01-03T00:10:59.356Z,7.60
2023-01-03T00:11:59.376Z,7.30
2023-01-03T00:12:59.312Z,6.90
2023-01-03T00:13:59.326Z,7.30
2023-01-03T00:14:59.273Z,7.60
2023-01-03T00:15:59.314Z,7.60
2023-01-03T00:16:59.373Z,8.10
2023-01-03T00:17:59.270Z,7.50
2023-01-03T00:18:59.285Z,7.50
2023-01-03T00:19:59.215Z,7.90
2023-01-03T00:20:59.241Z,7.80
2023-01-03T00:21:59.346Z,8.00
2023-01-03T00:22:59.117Z,7.40
2023-01-03T00:23:59.135Z,8.00
2023-01-03T00:24:59.172Z,8.00
2023-01-03T00:25:59.169Z,7.70
2023-01-03T00:26:59.193Z,9.30
2023-01-03T00:27:59.205Z,10.10
2023-01-03T00:28:59.107Z,9.90
2023-01-03T00:29:59.134Z,9.30
2023-01-03T00:30:59.198Z,9.30
2023-01-03T00:31:59.131Z,9.40
2023-01-03T00:32:59.119Z,9.20
2023-01-03T00:33:59.054Z,9.00
2023-01-03T00:35:04.731Z,9.60
2023-01-03T00:35:59.066Z,10.10
2023-01-03T00:36:58.998Z,10.20
2023-01-03T00:37:59.094Z,10.30
2023-01-03T00:38:59.009Z,10.40
2023-01-03T00:39:59.006Z,11.00
2023-01-03T00:40:59.002Z,10.80
2023-01-03T00:41:58.995Z,11.30
2023-01-03T00:42:59.075Z,11.00
2023-01-03T00:43:58.985Z,11.00
2023-01-03T00:44:58.967Z,11.40
2023-01-03T00:45:58.984Z,11.00
2023-01-03T00:46:58.950Z,10.70
2023-01-03T00:47:59.099Z,10.10
2023-01-03T00:48:58.933Z,10.30
2023-01-03T00:49:58.919Z,10.60
2023-01-03T00:50:58.921Z,10.20
2023-01-03T00:51:58.932Z,10.50
2023-01-03T00:52:58.902Z,10.00
2023-01-03T00:53:58.981Z,10.10
2023-01-03T00:54:58.898Z,9.70
2023-01-03T00:55:58.881Z,10.30
2023-01-03T00:56:58.868Z,10.10
2023-01-03T00:57:58.868Z,10.80
2023-01-03T00:58:58.792Z,10.20
2023-01-03T00:59:58.896Z,10.70
2023-01-03T01:00:58.808Z,11.40
2023-01-03T01:01:58.927Z,10.80
2023-01-03T01:02:59.032Z,11.10
2023-01-03T01:03:58.826Z,11.10
2023-01-03T01:04:58.601Z,11.00
2023-01-03T01:05:58.773Z,11.30
2023-01-03T01:06:58.554Z,11.80
2023-01-03T01:07:58.637Z,12.00
2023-01-03T01:08:58.532Z,11.10
2023-01-03T01:09:58.686Z,11.00
2023-01-03T01:10:58.720Z,11.60
2023-01-03T01:11:58.616Z,10.90
2023-01-03T01:12:58.642Z,11.30
2023-01-03T01:13:58.473Z,11.50
2023-01-03T01:14:58.674Z,11.10
2023-01-03T01:15:58.650Z,11.00
2023-01-03T01:16:58.615Z,11.70
2023-01-03T01:17:58.620Z,11.50
2023-01-03T01:18:58.447Z,10.90
2023-01-03T01:19:58.638Z,11.60
2023-01-03T01:20:58.572Z,11.40
2023-01-03T01:21:58.521Z,11.50
2023-01-03T01:22:58.524Z,11.50
2023-01-03T01:23:58.540Z,11.50
2023-01-03T01:24:58.567Z,12.00
2023-01-03T01:25:58.591Z,12.00
2023-01-03T01:26:58.622Z,12.00
2023-01-03T01:27:58.504Z,12.00
2023-01-03T01:28:58.533Z,11.80
2023-01-03T01:29:58.492Z,12.30
2023-01-03T01:30:58.510Z,12.40
2023-01-03T01:31:58.624Z,12.50
2023-01-03T01:32:58.462Z,12.10
2023-01-03T01:33:58.422Z,12.30
2023-01-03T01:34:58.454Z,12.40
2023-01-03T01:35:58.479Z,12.20
2023-01-03T01:36:58.508Z,11.50
2023-01-03T01:37:58.365Z,12.10
2023-01-03T01:38:58.382Z,11.90
2023-01-03T01:39:58.399Z,12.60
2023-01-03T01:40:58.297Z,12.30
2023-01-03T01:41:58.445Z,12.30
2023-01-03T01:42:58.460Z,12.50
2023-01-03T01:43:58.271Z,12.70
2023-01-03T01:44:58.290Z,12.50
2023-01-03T01:45:58.320Z,12.10
2023-01-03T01:46:58.310Z,12.30
2023-01-03T01:47:58.239Z,12.10
2023-01-03T01:48:58.335Z,11.90
2023-01-03T01:49:58.265Z,12.00
2023-01-03T01:50:58.191Z,12.00
2023-01-03T01:51:58.191Z,12.50
2023-01-03T01:52:58.292Z,12.00
2023-01-03T01:53:58.217Z,12.20
2023-01-03T01:54:58.236Z,12.20
2023-01-03T01:55:58.238Z,12.40
2023-01-03T01:56:58.171Z,12.20
2023-01-03T01:57:58.268Z,12.20
2023-01-03T01:58:58.290Z,11.60
2023-01-03T01:59:58.147Z,12.30
2023-01-03T02:00:58.174Z,12.40
2023-01-03T02:01:58.209Z,11.80
2023-01-03T02:02:58.275Z,12.50
2023-01-03T02:03:58.043Z,11.80
2023-01-03T02:04:58.148Z,13.20
2023-01-03T02:05:58.111Z,13.80
2023-01-03T02:06:58.066Z,14.00
2023-01-03T02:07:58.109Z,13.00
2023-01-03T02:08:58.132Z,12.70
2023-01-03T02:09:58.005Z,13.30
2023-01-03T02:10:58.037Z,13.50
2023-01-03T02:11:58.052Z,14.00
2023-01-03T02:12:58.069Z,14.00
2023-01-03T02:13:58.078Z,13.30
2023-01-03T02:14:57.969Z,13.20
2023-01-03T02:15:58.068Z,13.00
2023-01-03T02:16:58.011Z,12.90
2023-01-03T02:17:57.865Z,13.60
2023-01-03T02:18:57.953Z,13.10
2023-01-03T02:19:57.961Z,13.00
2023-01-03T02:20:57.885Z,12.80
2023-01-03T02:21:57.901Z,12.80
2023-01-03T02:22:57.905Z,13.60
2023-01-03T02:23:57.929Z,12.20
2023-01-03T02:24:57.922Z,12.10
2023-01-03T02:25:57.842Z,12.70
2023-01-03T02:26:57.855Z,12.60
2023-01-03T02:27:57.890Z,12.80
2023-01-03T02:28:57.887Z,12.40
2023-01-03T02:29:57.828Z,12.60
2023-01-03T02:30:58.013Z,12.40
2023-01-03T02:31:57.959Z,12.70
2023-01-03T02:32:57.806Z,12.30
2023-01-03T02:33:57.823Z,12.20
2023-01-03T02:34:57.768Z,12.00
2023-01-03T02:35:57.791Z,12.20
2023-01-03T02:36:57.581Z,12.20
2023-01-03T02:37:57.836Z,12.50
2023-01-03T02:38:57.789Z,12.60
2023-01-03T02:39:57.732Z,12.70
2023-01-03T02:40:57.750Z,12.40
2023-01-03T02:41:57.691Z,12.60
2023-01-03T02:42:57.797Z,12.30
2023-01-03T02:43:57.747Z,12.60
2023-01-03T02:44:57.595Z,12.80
2023-01-03T02:45:57.597Z,12.90
2023-01-03T02:46:57.701Z,13.60
2023-01-03T02:47:57.599Z,12.50
2023-01-03T02:48:57.754Z,12.80
2023-01-03T02:49:57.603Z,13.90
2023-01-03T02:50:57.468Z,13.60
2023-01-03T02:51:57.634Z,13.80
2023-01-03T02:52:57.646Z,14.00
2023-01-03T02:53:57.524Z,13.70
2023-01-03T02:54:57.534Z,13.60
2023-01-03T02:55:57.543Z,13.90
2023-01-03T02:56:57.556Z,13.80
2023-01-03T02:57:57.490Z,14.30
2023-01-03T02:58:57.567Z,14.40
2023-01-03T02:59:57.481Z,13.70
2023-01-03T03:00:57.527Z,14.40
2023-01-03T03:01:57.535Z,14.50
2023-01-03T03:02:57.571Z,15.20
2023-01-03T03:03:57.487Z,16.10
2023-01-03T03:04:57.525Z,15.80
2023-01-03T03:05:57.470Z,15.70
2023-01-03T03:06:57.499Z,16.00
2023-01-03T03:07:57.254Z,15.50
2023-01-03T03:08:57.408Z,15.80
2023-01-03T03:09:57.501Z,15.70
2023-01-03T03:10:57.464Z,15.10
2023-01-03T03:11:57.397Z,16.10
2023-01-03T03:12:57.419Z,14.90
2023-01-03T03:13:57.355Z,15.30
2023-01-03T03:14:57.449Z,13.90
2023-01-03T03:15:57.420Z,13.70
2023-01-03T03:16:57.346Z,14.10
2023-01-03T03:17:57.354Z,12.10
2023-01-03T03:18:57.377Z,12.00
2023-01-03T03:20:00.606Z,12.20
2023-01-03T03:20:57.337Z,11.20
2023-01-03T03:21:57.180Z,12.00
2023-01-03T03:22:57.185Z,11.50
2023-01-03T03:23:57.208Z,11.70
2023-01-03T03:24:57.231Z,12.80
2023-01-03T03:25:57.254Z,12.10
2023-01-03T03:26:57.275Z,12.50
2023-01-03T03:27:57.170Z,12.50
2023-01-03T03:28:57.191Z,12.90
2023-01-03T03:29:57.131Z,12.40
2023-01-03T03:30:57.284Z,13.20
2023-01-03T03:31:57.226Z,12.90
2023-01-03T03:32:57.166Z,13.20
2023-01-03T03:33:57.101Z,12.90
2023-01-03T03:34:57.127Z,12.80
2023-01-03T03:35:57.083Z,12.60
2023-01-03T03:36:57.194Z,12.50
2023-01-03T03:37:57.128Z,12.40
2023-01-03T03:38:57.082Z,13.20
2023-01-03T03:39:57.105Z,13.10
2023-01-03T03:40:57.054Z,13.30
2023-01-03T03:41:57.172Z,12.90
2023-01-03T03:42:57.111Z,12.30
2023-01-03T03:43:57.063Z,13.20
2023-01-03T03:45:00.873Z,14.00
2023-01-03T03:45:57.037Z,12.40
2023-01-03T03:46:57.193Z,12.20
2023-01-03T03:47:56.993Z,12.00
2023-01-03T03:48:57.009Z,12.00
2023-01-03T03:49:57.020Z,11.80
2023-01-03T03:50:56.961Z,11.80
2023-01-03T03:51:56.971Z,12.00
2023-01-03T03:52:56.994Z,13.20
2023-01-03T03:53:56.844Z,12.40
2023-01-03T03:54:56.861Z,11.60
2023-01-03T03:55:57.026Z,12.00
2023-01-03T03:56:56.888Z,11.90
2023-01-03T03:57:56.889Z,12.20
2023-01-03T03:58:56.889Z,12.90
2023-01-03T03:59:56.877Z,12.40
2023-01-03T04:00:56.876Z,13.20
2023-01-03T04:01:56.969Z,13.50
2023-01-03T04:02:57.000Z,13.50
2023-01-03T04:03:56.943Z,13.30
2023-01-03T04:04:56.869Z,13.20
2023-01-03T04:05:56.754Z,13.30
2023-01-03T04:06:56.749Z,13.60
2023-01-03T04:07:56.876Z,13.60
2023-01-03T04:08:56.777Z,14.00
2023-01-03T04:09:56.876Z,14.10
2023-01-03T04:10:56.689Z,13.50
2023-01-03T04:11:56.705Z,13.70
2023-01-03T04:12:56.721Z,13.30
2023-01-03T04:13:56.663Z,13.40
2023-01-03T04:14:56.787Z,13.50
2023-01-03T04:15:56.736Z,13.60
2023-01-03T04:16:56.670Z,13.30
2023-01-03T04:17:56.634Z,13.70
2023-01-03T04:18:56.727Z,13.00
2023-01-03T04:19:56.660Z,13.80
2023-01-03T04:20:56.685Z,14.00
2023-01-03T04:21:56.647Z,14.00
2023-01-03T04:22:56.646Z,13.60
2023-01-03T04:23:56.404Z,14.10
2023-01-03T04:24:56.693Z,14.60
2023-01-03T04:25:56.559Z,13.70
2023-01-03T04:26:56.593Z,13.60
2023-01-03T04:27:56.544Z,14.00
2023-01-03T04:28:56.575Z,13.60
2023-01-03T04:29:56.534Z,13.80
2023-01-03T04:30:56.636Z,13.10
2023-01-03T04:31:56.577Z,13.50
2023-01-03T04:32:56.505Z,13.20
2023-01-03T04:33:56.511Z,12.10
2023-01-03T04:34:56.377Z,13.40
2023-01-03T04:35:56.410Z,13.50
2023-01-03T04:36:56.457Z,12.60
2023-01-03T04:37:56.467Z,12.90
2023-01-03T04:38:56.378Z,12.90
2023-01-03T04:39:56.403Z,13.30
2023-01-03T04:40:56.435Z,12.60
2023-01-03T04:41:56.285Z,12.50
2023-01-03T04:42:56.353Z,12.50
2023-01-03T04:43:56.322Z,12.70
2023-01-03T04:44:56.381Z,12.50
2023-01-03T04:45:56.490Z,12.80
2023-01-03T04:46:56.376Z,13.00
2023-01-03T04:47:56.401Z,12.60
2023-01-03T04:48:56.346Z,13.30
2023-01-03T04:49:56.309Z,13.20
2023-01-03T04:50:56.332Z,13.00
2023-01-03T04:51:56.354Z,13.00
2023-01-03T04:52:56.311Z,12.90
2023-01-03T04:53:56.256Z,12.10
2023-01-03T04:54:56.301Z,12.40
2023-01-03T04:55:56.269Z,12.60
2023-01-03T04:56:56.241Z,13.10
2023-01-03T04:57:56.297Z,13.30
2023-01-03T04:58:56.199Z,12.50
2023-01-03T04:59:56.244Z,12.10
2023-01-03T05:00:56.354Z,12.50
2023-01-03T05:01:56.415Z,11.40
2023-01-03T05:02:56.268Z,12.30
2023-01-03T05:03:56.224Z,12.40
2023-01-03T05:04:56.194Z,13.10
2023-01-03T05:05:56.132Z,12.30
2023-01-03T05:06:56.143Z,12.40
2023-01-03T05:07:56.226Z,12.60
2023-01-03T05:08:56.120Z,11.90
2023-01-03T05:09:56.202Z,12.10
2023-01-03T05:10:56.011Z,12.00
2023-01-03T05:11:56.062Z,12.20
2023-01-03T05:12:56.080Z,12.70
2023-01-03T05:13:56.111Z,12.00
2023-01-03T05:14:56.012Z,11.50
2023-01-03T05:15:56.024Z,12.20
2023-01-03T05:16:56.069Z,12.30
2023-01-03T05:17:55.971Z,11.60
2023-01-03T05:18:55.965Z,12.00
2023-01-03T05:19:56.060Z,12.70
2023-01-03T05:20:55.923Z,12.10
2023-01-03T05:21:55.949Z,12.70
2023-01-03T05:22:55.899Z,13.10
2023-01-03T05:23:55.849Z,12.30
2023-01-03T05:24:55.955Z,12.80
2023-01-03T05:25:55.986Z,13.70
2023-01-03T05:26:55.930Z,12.80
2023-01-03T05:27:55.890Z,12.30
2023-01-03T05:28:55.913Z,12.30
2023-01-03T05:29:55.668Z,12.90
2023-01-03T05:30:55.871Z,11.90
2023-01-03T05:31:55.995Z,12.50
2023-01-03T05:32:55.826Z,12.70
2023-01-03T05:33:55.677Z,12.60
2023-01-03T05:34:55.592Z,12.50
2023-01-03T05:35:55.858Z,12.80
2023-01-03T05:36:55.902Z,12.40
2023-01-03T05:37:55.688Z,12.90
2023-01-03T05:38:55.771Z,12.30
2023-01-03T05:39:55.574Z,13.10
2023-01-03T05:40:55.649Z,12.50
2023-01-03T05:41:55.804Z,12.70
2023-01-03T05:42:55.698Z,12.80
2023-01-03T05:43:55.702Z,12.60
2023-01-03T05:44:55.652Z,13.20
2023-01-03T05:45:55.714Z,12.60
2023-01-03T05:46:55.667Z,13.10
2023-01-03T05:47:55.730Z,12.90
2023-01-03T05:48:55.628Z,13.10
2023-01-03T05:49:55.619Z,12.70
2023-01-03T05:50:55.612Z,12.90
2023-01-03T05:51:55.637Z,12.40
2023-01-03T05:52:55.733Z,12.40
2023-01-03T05:53:55.611Z,13.00
2023-01-03T05:54:55.575Z,13.00
2023-01-03T05:55:55.630Z,12.50
2023-01-03T05:56:55.617Z,12.30
2023-01-03T05:57:55.566Z,11.80
2023-01-03T05:58:55.669Z,12.20
2023-01-03T05:59:55.574Z,12.40
2023-01-03T06:00:55.524Z,11.30
2023-01-03T06:01:55.484Z,11.60
2023-01-03T06:02:55.379Z,11.80
2023-01-03T06:03:55.385Z,11.80
2023-01-03T06:04:55.319Z,11.20
2023-01-03T06:05:55.287Z,10.80
2023-01-03T06:06:55.284Z,10.40
2023-01-03T06:07:55.263Z,10.50
2023-01-03T06:08:55.554Z,10.60
2023-01-03T06:09:55.307Z,10.40
2023-01-03T06:10:55.328Z,10.20
2023-01-03T06:11:55.199Z,10.20
2023-01-03T06:12:55.210Z,10.50
2023-01-03T06:13:55.188Z,10.20
2023-01-03T06:14:55.251Z,9.90
2023-01-03T06:15:55.149Z,10.00
2023-01-03T06:16:55.255Z,10.60
2023-01-03T06:17:55.380Z,10.30
2023-01-03T06:18:55.163Z,9.90
2023-01-03T06:19:55.163Z,10.20
2023-01-03T06:20:55.308Z,10.40
2023-01-03T06:21:55.183Z,9.90
2023-01-03T06:22:55.222Z,9.60
2023-01-03T06:23:55.254Z,9.80
2023-01-03T06:24:55.223Z,9.90
2023-01-03T06:25:55.169Z,10.40
2023-01-03T06:26:55.182Z,10.50
2023-01-03T06:27:54.981Z,10.40
2023-01-03T06:28:55.060Z,10.80
2023-01-03T06:29:55.082Z,10.80
2023-01-03T06:30:55.191Z,10.40
2023-01-03T06:31:54.981Z,10.40
2023-01-03T06:32:55.000Z,10.40
2023-01-03T06:33:55.224Z,10.10
2023-01-03T06:34:55.250Z,10.60
2023-01-03T06:35:54.943Z,10.50
2023-01-03T06:36:55.162Z,10.00
2023-01-03T06:37:55.185Z,10.80
2023-01-03T06:38:55.088Z,10.00
2023-01-03T06:39:55.128Z,10.00
2023-01-03T06:40:54.911Z,9.80
2023-01-03T06:41:55.191Z,9.90
2023-01-03T06:42:55.214Z,9.70
2023-01-03T06:43:55.015Z,10.10
2023-01-03T06:44:55.037Z,9.80
2023-01-03T06:45:55.082Z,9.60
2023-01-03T06:46:55.062Z,9.50
2023-01-03T06:47:55.085Z,9.50
2023-01-03T06:48:55.127Z,10.00
2023-01-03T06:49:54.895Z,10.10
2023-01-03T06:50:54.931Z,9.80
2023-01-03T06:51:54.763Z,9.90
2023-01-03T06:52:54.991Z,10.10
2023-01-03T06:53:55.019Z,10.20
2023-01-03T06:54:54.833Z,9.80
2023-01-03T06:55:57.350Z,9.80
2023-01-03T06:56:54.891Z,9.60
2023-01-03T06:57:54.814Z,10.60
2023-01-03T06:58:54.684Z,11.20
2023-01-03T06:59:54.744Z,10.30
2023-01-03T07:00:54.895Z,9.80
2023-01-03T07:01:55.099Z,10.60
2023-01-03T07:02:54.795Z,10.30
2023-01-03T07:03:55.180Z,10.00
2023-01-03T07:04:54.909Z,10.50
2023-01-03T07:05:54.797Z,10.10
2023-01-03T07:06:54.705Z,10.80
2023-01-03T07:07:54.867Z,10.50
2023-01-03T07:08:54.765Z,11.00
2023-01-03T07:09:54.795Z,10.40
2023-01-03T07:10:54.843Z,10.00
2023-01-03T07:11:54.861Z,10.30
2023-01-03T07:12:54.892Z,10.50
2023-01-03T07:13:54.947Z,10.00
2023-01-03T07:14:54.712Z,11.00
2023-01-03T07:15:54.807Z,11.00
2023-01-03T07:16:54.733Z,11.20
2023-01-03T07:17:54.480Z,11.00
2023-01-03T07:18:55.530Z,10.90
2023-01-03T07:19:54.544Z,11.00
2023-01-03T07:20:54.595Z,10.80
2023-01-03T07:21:54.403Z,11.40
2023-01-03T07:22:54.428Z,11.00
2023-01-03T07:23:54.461Z,10.90
2023-01-03T07:24:54.409Z,11.00
2023-01-03T07:25:54.392Z,11.90
2023-01-03T07:26:54.467Z,11.60
2023-01-03T07:27:58.729Z,11.30
2023-01-03T07:28:54.432Z,11.30
2023-01-03T07:29:54.515Z,11.10
2023-01-03T07:30:54.479Z,11.80
2023-01-03T07:31:54.619Z,11.60
2023-01-03T07:32:54.364Z,11.90
2023-01-03T07:33:54.485Z,11.30
2023-01-03T07:34:54.473Z,11.70
2023-01-03T07:35:54.501Z,11.30
2023-01-03T07:36:54.514Z,11.20
2023-01-03T07:37:54.420Z,12.20
2023-01-03T07:38:54.379Z,11.70
2023-01-03T07:39:54.461Z,11.60
2023-01-03T07:40:54.281Z,11.70
2023-01-03T07:41:54.509Z,11.80
2023-01-03T07:42:54.535Z,11.70
2023-01-03T07:43:54.544Z,11.40
2023-01-03T07:44:54.560Z,11.30
2023-01-03T07:45:54.174Z,11.10
2023-01-03T07:46:54.395Z,10.80
2023-01-03T07:47:54.156Z,11.60
2023-01-03T07:48:54.301Z,10.90
2023-01-03T07:49:54.311Z,11.20
2023-01-03T07:50:54.446Z,11.20
2023-01-03T07:51:54.474Z,12.10
2023-01-03T07:52:54.467Z,10.80
2023-01-03T07:53:54.496Z,10.00
2023-01-03T07:54:54.204Z,11.70
2023-01-03T07:55:54.475Z,11.60
2023-01-03T07:56:54.205Z,11.60
2023-01-03T07:57:54.218Z,11.10
2023-01-03T07:58:54.229Z,11.00
2023-01-03T07:59:54.231Z,10.80
2023-01-03T08:00:54.465Z,10.60
2023-01-03T08:01:54.249Z,11.10
2023-01-03T08:02:54.249Z,11.40
2023-01-03T08:03:54.286Z,10.90
2023-01-03T08:04:54.137Z,10.90
2023-01-03T08:05:54.253Z,10.80
2023-01-03T08:06:54.241Z,10.60
2023-01-03T08:07:54.252Z,11.20
2023-01-03T08:08:54.288Z,10.80
2023-01-03T08:09:54.045Z,10.60
2023-01-03T08:10:54.082Z,10.60
2023-01-03T08:11:53.911Z,9.80
2023-01-03T08:12:54.139Z,9.90
2023-01-03T08:13:54.154Z,10.20
2023-01-03T08:14:54.168Z,9.90
2023-01-03T08:15:54.225Z,10.10
2023-01-03T08:16:54.201Z,9.20
2023-01-03T08:17:53.991Z,8.90
2023-01-03T08:18:53.862Z,8.30
2023-01-03T08:19:54.036Z,8.40
2023-01-03T08:20:54.027Z,8.30
2023-01-03T08:21:54.024Z,7.40
2023-01-03T08:22:54.031Z,6.70
2023-01-03T08:23:53.925Z,6.80
2023-01-03T08:24:53.929Z,6.70
2023-01-03T08:25:53.929Z,5.90
2023-01-03T08:26:54.051Z,6.00
2023-01-03T08:27:53.923Z,5.60
2023-01-03T08:28:54.037Z,5.70
2023-01-03T08:29:53.812Z,5.40
2023-01-03T08:30:53.987Z,4.80
2023-01-03T08:31:54.117Z,4.80
2023-01-03T08:32:53.701Z,4.60
2023-01-03T08:33:53.879Z,4.50
2023-01-03T08:34:53.893Z,4.70
2023-01-03T08:35:53.922Z,5.00
2023-01-03T08:36:53.940Z,4.40
2023-01-03T08:37:53.638Z,4.20
2023-01-03T08:38:53.930Z,3.90
2023-01-03T08:39:53.971Z,3.70
2023-01-03T08:40:53.954Z,3.70
2023-01-03T08:41:53.958Z,4.00
2023-01-03T08:42:53.741Z,3.90
2023-01-03T08:43:53.753Z,3.60
2023-01-03T08:44:54.025Z,3.40
2023-01-03T08:45:53.804Z,3.40
2023-01-03T08:46:53.906Z,3.50
2023-01-03T08:47:53.886Z,3.50
2023-01-03T08:48:53.655Z,3.50
2023-01-03T08:49:53.936Z,3.30
2023-01-03T08:50:53.659Z,3.30
2023-01-03T08:51:53.650Z,3.40
2023-01-03T08:52:53.517Z,3.10
2023-01-03T08:53:53.671Z,3.30
2023-01-03T08:54:53.650Z,3.10
2023-01-03T08:55:53.639Z,3.10
2023-01-03T08:56:53.626Z,3.20
2023-01-03T08:57:53.630Z,3.30
2023-01-03T08:58:53.623Z,3.50
2023-01-03T08:59:53.614Z,3.30
2023-01-03T09:00:53.659Z,3.40
2023-01-03T09:01:53.832Z,3.30
2023-01-03T09:02:54.170Z,3.70
2023-01-03T09:03:53.797Z,3.30
2023-01-03T09:04:53.685Z,3.40
2023-01-03T09:05:53.437Z,3.50
2023-01-03T09:06:53.360Z,3.70
2023-01-03T09:07:53.414Z,3.40
2023-01-03T09:08:53.469Z,3.50
2023-01-03T09:09:53.484Z,3.30
2023-01-03T09:10:53.287Z,2.90
2023-01-03T09:11:53.360Z,3.20
2023-01-03T09:12:53.284Z,3.60
2023-01-03T09:13:53.542Z,3.80
2023-01-03T09:14:53.278Z,3.50
2023-01-03T09:15:53.335Z,3.30
2023-01-03T09:16:53.387Z,3.20
2023-01-03T09:17:53.578Z,3.20
2023-01-03T09:18:53.285Z,3.60
2023-01-03T09:19:53.241Z,3.50
2023-01-03T09:20:53.541Z,4.00
2023-01-03T09:21:53.537Z,3.40
2023-01-03T09:22:53.225Z,3.70
2023-01-03T09:23:53.303Z,3.60
2023-01-03T09:24:53.143Z,3.50
2023-01-03T09:25:53.145Z,3.50
2023-01-03T09:26:55.057Z,3.40
2023-01-03T09:27:53.227Z,3.30
2023-01-03T09:28:53.138Z,3.80
2023-01-03T09:29:53.150Z,4.00
2023-01-03T09:30:53.141Z,3.60
2023-01-03T09:31:53.321Z,3.80
2023-01-03T09:32:53.421Z,3.70
2023-01-03T09:33:53.463Z,3.60
2023-01-03T09:34:53.454Z,3.80
2023-01-03T09:35:53.201Z,3.70
2023-01-03T09:36:53.082Z,3.80
2023-01-03T09:37:53.224Z,3.60
2023-01-03T09:38:53.019Z,3.80
2023-01-03T09:39:53.237Z,4.00
2023-01-03T09:40:53.237Z,3.60
2023-01-03T09:41:53.226Z,4.10
2023-01-03T09:42:52.958Z,3.90
2023-01-03T09:43:53.002Z,3.90
2023-01-03T09:44:53.020Z,4.10
2023-01-03T09:45:52.971Z,4.00
2023-01-03T09:46:53.048Z,4.00
2023-01-03T09:47:52.932Z,4.10
2023-01-03T09:48:52.941Z,4.00
2023-01-03T09:50:26.537Z,4.00
2023-01-03T09:51:52.941Z,3.60
2023-01-03T09:52:53.080Z,3.40
2023-01-03T09:53:52.873Z,3.60
2023-01-03T09:54:53.066Z,3.80
2023-01-03T09:55:53.052Z,4.00
2023-01-03T09:56:52.829Z,3.30
2023-01-03T09:57:52.828Z,3.40
2023-01-03T09:58:52.949Z,3.30
2023-01-03T09:59:52.986Z,3.30
2023-01-03T10:00:52.891Z,3.10
2023-01-03T10:01:53.108Z,3.30
2023-01-03T10:02:52.970Z,3.20
2023-01-03T10:03:53.000Z,3.20
2023-01-03T10:04:52.807Z,2.90
2023-01-03T10:05:52.780Z,3.30
2023-01-03T10:06:52.898Z,2.70
2023-01-03T10:07:53.169Z,2.90
2023-01-03T10:08:52.971Z,2.90
2023-01-03T10:09:52.966Z,2.80
2023-01-03T10:10:52.737Z,2.90
2023-01-03T10:11:52.709Z,2.70
2023-01-03T10:12:53.010Z,2.80
2023-01-03T10:13:52.733Z,3.00
2023-01-03T10:14:52.643Z,2.80
2023-01-03T10:15:52.676Z,2.90
2023-01-03T10:16:52.694Z,2.70
2023-01-03T10:17:52.677Z,2.60
2023-01-03T10:18:52.620Z,2.50
2023-01-03T10:19:52.666Z,2.70
2023-01-03T10:20:52.831Z,2.70
2023-01-03T10:21:52.706Z,2.60
2023-01-03T10:22:52.559Z,2.50
2023-01-03T10:23:52.829Z,2.50
2023-01-03T10:24:52.574Z,2.40
2023-01-03T10:25:52.568Z,2.50
2023-01-03T10:26:52.559Z,2.40
2023-01-03T10:27:52.586Z,2.40
2023-01-03T10:28:52.508Z,2.40
2023-01-03T10:29:52.646Z,2.20
2023-01-03T10:30:59.532Z,2.60
2023-01-03T10:31:52.647Z,2.20
2023-01-03T10:32:52.566Z,2.30
2023-01-03T10:33:52.595Z,2.50
2023-01-03T10:34:52.510Z,2.40
2023-01-03T10:35:52.452Z,2.20
2023-01-03T10:36:52.460Z,2.10
2023-01-03T10:37:52.489Z,2.00
2023-01-03T10:38:53.491Z,2.00
2023-01-03T10:39:52.417Z,2.00
2023-01-03T10:40:52.453Z,2.30
2023-01-03T10:41:52.443Z,2.30
2023-01-03T10:42:52.392Z,3.10
2023-01-03T10:43:52.403Z,2.00
2023-01-03T10:44:52.403Z,2.20
2023-01-03T10:45:52.436Z,2.00
2023-01-03T10:46:52.495Z,2.00
2023-01-03T10:47:52.305Z,2.00
2023-01-03T10:49:25.968Z,1.80
2023-01-03T10:49:52.291Z,1.70
2023-01-03T10:50:52.261Z,1.90
2023-01-03T10:51:52.525Z,1.80
2023-01-03T10:52:52.288Z,1.80
2023-01-03T10:53:52.429Z,1.90
2023-01-03T10:54:52.401Z,1.90
2023-01-03T10:55:52.277Z,1.80
2023-01-03T10:56:52.408Z,1.70
2023-01-03T10:57:52.320Z,2.10
2023-01-03T10:58:52.253Z,1.80
2023-01-03T10:59:52.564Z,1.40
2023-01-03T11:00:52.267Z,1.70
2023-01-03T11:01:52.569Z,1.60
2023-01-03T11:02:52.388Z,1.50
2023-01-03T11:03:52.341Z,1.50
2023-01-03T11:04:52.142Z,1.50
2023-01-03T11:05:52.147Z,1.60
2023-01-03T11:06:52.122Z,1.50
2023-01-03T11:07:52.158Z,1.70
2023-01-03T11:08:52.125Z,1.60
2023-01-03T11:09:52.532Z,1.50
2023-01-03T11:10:52.075Z,1.60
2023-01-03T11:11:52.093Z,1.50
2023-01-03T11:12:52.272Z,1.50
2023-01-03T11:13:52.262Z,1.50
2023-01-03T11:14:52.269Z,1.60
2023-01-03T11:15:52.172Z,1.40
2023-01-03T11:16:52.281Z,1.40
2023-01-03T11:17:52.243Z,1.70
2023-01-03T11:18:52.279Z,1.40
2023-01-03T11:19:52.204Z,1.50
2023-01-03T11:20:52.220Z,1.50
2023-01-03T11:21:52.261Z,1.50
2023-01-03T11:22:52.290Z,1.60
2023-01-03T11:23:52.303Z,1.50
2023-01-03T11:24:52.321Z,1.60
2023-01-03T11:25:52.104Z,1.60
2023-01-03T11:26:52.119Z,1.70
2023-01-03T11:27:51.998Z,1.50
2023-01-03T11:28:52.141Z,1.40
2023-01-03T11:29:52.139Z,1.70
2023-01-03T11:30:51.848Z,1.60
2023-01-03T11:31:52.205Z,1.50
2023-01-03T11:32:52.198Z,1.40
2023-01-03T11:33:51.950Z,1.90
2023-01-03T11:35:51.861Z,1.70
2023-01-03T11:36:51.834Z,1.60
2023-01-03T11:37:51.826Z,1.50
2023-01-03T11:38:51.778Z,1.70
2023-01-03T11:39:51.796Z,1.70
2023-01-03T11:40:51.799Z,1.70
2023-01-03T11:41:51.813Z,1.60
2023-01-03T11:42:51.865Z,1.70
2023-01-03T11:43:51.757Z,1.90
2023-01-03T11:44:51.863Z,1.80
2023-01-03T11:45:51.807Z,1.60
2023-01-03T11:46:51.935Z,2.10
2023-01-03T11:47:51.916Z,1.90
2023-01-03T11:48:51.821Z,1.80
2023-01-03T11:49:51.837Z,1.80
2023-01-03T11:50:52.095Z,1.90
2023-01-03T11:51:51.760Z,1.70
2023-01-03T11:52:51.958Z,1.80
2023-01-03T11:53:51.816Z,2.00
2023-01-03T11:54:53.573Z,1.70
2023-01-03T11:55:51.731Z,1.70
2023-01-03T11:56:51.786Z,1.90
2023-01-03T11:57:51.892Z,1.90
2023-01-03T11:58:51.797Z,1.90
2023-01-03T11:59:51.589Z,1.80
2023-01-03T12:00:51.687Z,1.70
2023-01-03T12:01:51.978Z,2.00
2023-01-03T12:02:51.796Z,2.00
2023-01-03T12:03:51.574Z,1.60
2023-01-03T12:04:51.819Z,1.60
2023-01-03T12:05:51.859Z,1.70
2023-01-03T12:06:51.510Z,1.70
2023-01-03T12:07:51.510Z,1.60
2023-01-03T12:08:51.705Z,1.60
2023-01-03T12:09:51.720Z,1.60
2023-01-03T12:10:51.732Z,1.60
2023-01-03T12:11:51.754Z,1.80
2023-01-03T12:12:51.791Z,1.70
2023-01-03T12:13:51.471Z,1.70
2023-01-03T12:14:51.450Z,1.70
2023-01-03T12:15:51.535Z,1.80
2023-01-03T12:16:51.392Z,1.50
2023-01-03T12:17:51.411Z,1.70
2023-01-03T12:18:51.476Z,1.70
2023-01-03T12:19:51.423Z,1.70
2023-01-03T12:20:51.392Z,1.70
2023-01-03T12:21:51.370Z,1.70
2023-01-03T12:22:51.351Z,1.60
2023-01-03T12:23:51.493Z,1.80
2023-01-03T12:24:51.376Z,1.90
2023-01-03T12:25:51.380Z,1.90
2023-01-03T12:26:51.383Z,2.10
2023-01-03T12:27:51.279Z,2.10
2023-01-03T12:28:52.040Z,1.60
2023-01-03T12:29:51.285Z,1.70
2023-01-03T12:30:51.322Z,1.90
2023-01-03T12:31:51.385Z,1.90
2023-01-03T12:32:51.237Z,1.70
2023-01-03T12:33:51.250Z,1.70
2023-01-03T12:34:51.204Z,1.70
2023-01-03T12:35:51.246Z,1.80
2023-01-03T12:36:51.249Z,1.70
2023-01-03T12:37:51.223Z,1.80
2023-01-03T12:38:51.291Z,1.70
2023-01-03T12:39:51.319Z,1.80
2023-01-03T12:40:51.328Z,1.70
2023-01-03T12:41:51.157Z,1.70
2023-01-03T12:42:51.141Z,1.60
2023-01-03T12:43:52.759Z,1.70
2023-01-03T12:44:51.097Z,1.70
2023-01-03T12:45:51.124Z,1.60
2023-01-03T12:46:51.224Z,1.40
2023-01-03T12:47:51.167Z,1.80
2023-01-03T12:48:51.100Z,1.70
2023-01-03T12:49:51.155Z,1.60
2023-01-03T12:50:51.266Z,1.70
2023-01-03T12:51:51.040Z,1.50
2023-01-03T12:52:51.050Z,1.60
2023-01-03T12:53:51.240Z,1.60
2023-01-03T12:54:51.224Z,1.80
2023-01-03T12:55:51.014Z,1.40
2023-01-03T12:56:51.232Z,1.80
2023-01-03T12:57:51.234Z,1.40
2023-01-03T12:58:51.241Z,1.90
2023-01-03T12:59:51.250Z,1.70
2023-01-03T13:00:51.263Z,2.20
2023-01-03T13:01:51.372Z,1.70
2023-01-03T13:02:51.497Z,1.70
2023-01-03T13:03:51.349Z,2.40
2023-01-03T13:04:51.293Z,1.70
2023-01-03T13:05:50.952Z,1.70